• Join FlightAware (Why Join?)
  • Login
  • US Flag 
Gobble Gobble! 
01:29PM EST


 

Airport Tracker/Info


-or-


 

Live Flight TrackerFlight Track Log ✈ UAL4191 ✈ 11-Dec-2013 ✈ KEWR - KBNA

Flight Track Log - Related Links

Times and Time Zones

All times are in EST time to prevent confusion due to time zone crossing. See the UAL4191 flight status page for this flight to view local times or setup timezone preferences in your user account.

Time Position Orientation Groundspeed Altitude Reporting Facility
EST Latitude Longitude Course Direction KTS MPH feet Rate Location/Type
08:05PM 40.6392 -74.1894 237° Southwest 182 209 2,800  Level New York Center
08:06PM 40.6333 -74.2522 263° West 214 246 5,200 2,640 Climbing New York Center
08:07PM 40.6264 -74.3367 264° West 222 255 8,100 2,700 Climbing New York Center
08:08PM 40.6242 -74.4103 268° West 225 259 10,700 1,620 Climbing New York Center
08:09PM 40.6336 -74.5147 277° West 275 316 11,400 1,620 Climbing New York Center
08:10PM 40.6431 -74.6083 278° West 290 334 14,000 2,160 Climbing New York Center
08:11PM 40.5130 -74.7784 237° Southwest  Level Estimated
08:11PM 40.6503 -74.7017 276° West 273 314 15,800  Level New York Center
08:13PM 40.6689 -74.8942 277° West 278 320 17,900 1,320 Climbing New York Center
08:14PM 40.6756 -74.9986 275° West 273 314 19,900 1,980 Climbing New York Center
08:15PM 40.6783 -75.0892 272° West 268 308 21,900 1,800 Climbing New York Center
08:16PM 40.6464 -75.1664 241° Southwest 240 276 23,500 1,020 Climbing New York Center
08:17PM 40.6081 -75.2458 238° Southwest 248 285 24,000 120 Climbing New York Center
08:19PM 40.5217 -75.4314 252° West 298 343 24,000  Level New York Center
08:20PM 40.4761 -75.5294 239° Southwest 305 351 24,000  Level New York Center
08:21PM 40.4347 -75.6247 240° Southwest 312 359 24,000  Level New York Center
08:22PM 40.3869 -75.7222 237° Southwest 312 359 24,000  Level New York Center
08:23PM 40.3497 -75.8119 241° Southwest 312 359 24,000  Level New York Center
08:24PM 40.3019 -75.9064 236° Southwest 312 359 24,000  Level New York Center
08:25PM 40.2561 -76.0011 238° Southwest 317 365 24,000  Level New York Center
08:26PM 40.2119 -76.0983 239° Southwest 317 365 24,000  Level New York Center
08:27PM 40.1725 -76.1903 241° Southwest 306 352 24,000  Level New York Center
08:28PM 40.1175 -76.2975 236° Southwest 311 358 24,000  Level New York Center
08:29PM 40.0756 -76.3892 239° Southwest 311 358 24,000  Level New York Center
08:30PM 40.0333 -76.4861 240° Southwest 306 352 24,000  Level New York Center
08:31PM 39.9872 -76.5797 237° Southwest 306 352 24,000  Level New York Center
08:32PM 39.9428 -76.6736 238° Southwest 306 352 24,000  Level New York Center
08:33PM 39.8983 -76.7728 240° Southwest 306 352 24,000  Level New York Center
08:34PM 39.8539 -76.8636 238° Southwest 306 352 24,000  Level New York Center
08:35PM 39.8208 -76.9342 239° Southwest 309 356 24,000  Level Washington Center
08:36PM 39.7758 -77.0278 238° Southwest 314 361 24,000  Level Washington Center
08:37PM 39.7311 -77.1214 238° Southwest 314 361 24,000  Level Washington Center
08:38PM 39.6861 -77.2147 238° Southwest 314 361 24,000  Level Washington Center
08:39PM 39.6431 -77.3108 240° Southwest 314 361 24,000  Level Washington Center
08:40PM 39.5981 -77.4067 239° Southwest 314 361 24,000  Level Washington Center
08:41PM 39.5528 -77.4997 238° Southwest 314 361 24,000  Level Washington Center
08:42PM 39.5075 -77.5953 238° Southwest 314 361 24,000  Level Washington Center
08:43PM 39.4619 -77.6883 238° Southwest 314 361 24,000  Level Washington Center
08:44PM 39.4167 -77.7836 238° Southwest 314 361 24,000  Level Washington Center
08:45PM 39.3711 -77.8817 239° Southwest 314 361 24,000  Level Washington Center
08:46PM 39.3336 -77.9825 244° Southwest 314 361 24,000  Level Washington Center
08:47PM 39.3064 -78.0889 252° West 314 361 24,000  Level Washington Center
08:48PM 39.2814 -78.1953 253° West 314 361 24,000  Level Washington Center
08:49PM 39.2561 -78.3014 253° West 314 361 24,000  Level Washington Center
08:50PM 39.2306 -78.4078 253° West 314 361 24,000  Level Washington Center
08:51PM 39.2031 -78.5139 252° West 314 361 24,000  Level Washington Center
08:52PM 39.1775 -78.6200 253° West 314 361 24,000  Level Washington Center
08:53PM 39.1517 -78.7314 253° West 319 367 24,000  Level Washington Center
08:54PM 39.1239 -78.8372 251° West 319 367 24,000  Level Washington Center
08:55PM 39.0983 -78.9403 252° West 319 367 24,000  Level Washington Center
08:56PM 39.0722 -79.0486 253° West 319 367 24,000  Level Washington Center
08:57PM 39.0461 -79.1544 252° West 319 367 24,000  Level Washington Center
08:58PM 39.0158 -79.2625 250° West 319 367 24,000  Level Washington Center
08:59PM 38.9917 -79.3708 254° West 319 367 24,000  Level Washington Center
09:00PM 38.9653 -79.4789 253° West 319 367 24,000  Level Washington Center
09:01PM 38.9367 -79.5842 251° West 319 367 24,000  Level Washington Center
09:02PM 38.9100 -79.6947 253° West 331 381 24,000  Level Washington Center
09:03PM 38.8856 -79.8000 253° West 324 373 24,000  Level Washington Center
09:04PM 38.8547 -79.9075 250° West 317 365 24,000  Level Washington Center
09:05PM 38.8281 -80.0125 252° West 317 365 24,000  Level Washington Center
09:06PM 38.7892 -80.1517 250° West 316 364 24,000  Level Indianapolis Center
09:07PM 38.7600 -80.2583 251° West 318 366 24,000  Level Indianapolis Center
09:08PM 38.7269 -80.3847 252° West 313 360 24,000  Level Indianapolis Center
09:09PM 38.6989 -80.4911 251° West 314 361 24,000  Level Indianapolis Center
09:10PM 38.6700 -80.5983 251° West 317 365 24,000  Level Indianapolis Center
09:12PM 38.6417 -80.7061 251° West 319 367 24,000  Level Indianapolis Center
09:13PM 38.6131 -80.8144 251° West 319 367 24,000  Level Indianapolis Center
09:14PM 38.5833 -80.9222 251° West 319 367 24,000  Level Indianapolis Center
09:15PM 38.5531 -81.0308 250° West 322 371 24,000  Level Indianapolis Center
09:16PM 38.5244 -81.1392 251° West 320 368 24,000  Level Indianapolis Center
09:17PM 38.4939 -81.2486 250° West 324 373 24,000  Level Indianapolis Center
09:18PM 38.4636 -81.3581 251° West 324 373 24,000  Level Indianapolis Center
09:19PM 38.4342 -81.4678 251° West 324 373 24,000  Level Indianapolis Center
09:20PM 38.4039 -81.5778 251° West 325 374 24,000  Level Indianapolis Center
09:21PM 38.3736 -81.6867 251° West 325 374 24,000  Level Indianapolis Center
09:22PM 38.3428 -81.7958 250° West 325 374 24,000  Level Indianapolis Center
09:23PM 38.3125 -81.9036 250° West 324 373 24,000  Level Indianapolis Center
09:24PM 38.2758 -82.0342 250° West 325 374 24,000  Level Indianapolis Center
09:25PM 38.2456 -82.1431 251° West 326 375 24,000  Level Indianapolis Center
09:26PM 38.2139 -82.2553 250° West 330 380 24,000  Level Indianapolis Center
09:27PM 38.1825 -82.3628 250° West 330 380 24,000  Level Indianapolis Center
09:28PM 38.1519 -82.4747 251° West 332 382 24,000  Level Indianapolis Center
09:29PM 38.1194 -82.5842 249° West 331 381 24,000  Level Indianapolis Center
09:30PM 38.0875 -82.6947 250° West 333 383 24,000  Level Indianapolis Center
09:31PM 38.0553 -82.8042 250° West 332 382 24,000  Level Indianapolis Center
09:32PM 38.0233 -82.9156 250° West 337 388 24,000  Level Indianapolis Center
09:33PM 37.9853 -83.0433 249° West 334 384 24,000  Level Indianapolis Center
09:34PM 37.9539 -83.1539 250° West 333 383 24,000  Level Indianapolis Center
09:35PM 37.9211 -83.2644 249° West 333 383 24,000  Level Indianapolis Center
09:36PM 37.8892 -83.3753 250° West 335 386 24,000  Level Indianapolis Center
09:37PM 37.8561 -83.4856 249° West 336 387 24,000  Level Indianapolis Center
09:38PM 37.8225 -83.5964 249° West 335 386 24,000  Level Indianapolis Center
09:39PM 37.7892 -83.7061 249° West 336 387 24,000  Level Indianapolis Center
09:40PM 37.7339 -83.8058 235° Southwest 351 404 24,000  Level Indianapolis Center
09:41PM 37.6625 -83.9144 230° Southwest 347 399 24,000  Level Indianapolis Center
09:42PM 37.6000 -84.0094 230° Southwest 349 402 24,000  Level Indianapolis Center
09:43PM 37.5383 -84.1047 231° Southwest 351 404 24,000  Level Indianapolis Center
09:44PM 37.4769 -84.1983 230° Southwest 348 400 24,000  Level Indianapolis Center
09:45PM 37.4167 -84.2947 232° Southwest 350 403 24,000  Level Indianapolis Center
09:46PM 37.3594 -84.3917 233° Southwest 347 399 24,000  Level Indianapolis Center
09:47PM 37.3014 -84.4897 233° Southwest 348 400 24,000  Level Indianapolis Center
09:48PM 37.2436 -84.5861 233° Southwest 347 399 24,000  Level Indianapolis Center
09:49PM 37.1750 -84.7000 233° Southwest 350 403 24,000  Level Indianapolis Center
09:50PM 37.1172 -84.7975 233° Southwest 349 402 24,000 -540 Level Indianapolis Center
09:51PM 37.0589 -84.8958 233° Southwest 349 402 23,000 -960 Descending Indianapolis Center
09:52PM 37.0025 -84.9881 233° Southwest 344 396 22,100 -540 Descending Indianapolis Center
09:53PM 36.9461 -85.0808 233° Southwest 338 389 22,000 -60 Descending Indianapolis Center
09:54PM 36.8897 -85.1736 233° Southwest 337 388 22,000  Level Indianapolis Center
09:55PM 36.8336 -85.2672 233° Southwest 337 388 22,000  Level Indianapolis Center
09:56PM 36.7775 -85.3589 233° Southwest 335 386 22,000  Level Indianapolis Center
09:57PM 36.7164 -85.4736 236° Southwest 333 383 22,000 -240 Level Indianapolis Center
09:59PM 36.6703 -85.5719 240° Southwest 331 381 21,600 -720 Descending Indianapolis Center
10:00PM 36.6222 -85.6736 240° Southwest 339 390 20,600 -1,020 Descending Indianapolis Center
10:01PM 36.5742 -85.7742 239° Southwest 339 390 19,600 -1,020 Descending Indianapolis Center
10:02PM 36.5300 -85.8681 240° Southwest 329 379 18,600 -960 Descending Indianapolis Center
10:03PM 36.4842 -85.9636 239° Southwest 321 369 17,700 -1,680 Descending Indianapolis Center
10:04PM 36.4381 -86.0583 239° Southwest 318 366 15,200 -2,580 Descending Indianapolis Center
10:05PM 36.3928 -86.1556 240° Southwest 319 367 12,700 -2,280 Descending Memphis Center
10:06PM 36.3456 -86.2511 238° Southwest 321 369 10,700 -1,620 Descending Memphis Center
10:07PM 36.3081 -86.3303 240° Southwest 273 314 9,400 -1,380 Descending Memphis Center
10:08PM 36.2722 -86.4058 240° Southwest 256 295 7,900 -1,380 Descending Memphis Center
10:09PM 36.2358 -86.4794 239° Southwest 250 288 6,600 -960 Descending Memphis Center
10:10PM 36.1847 -86.5300 219° Southwest 247 284 6,000 -720 Descending Memphis Center
10:11PM 36.1214 -86.5564 199° South 239 275 5,200 -780 Descending Memphis Center
10:12PM 36.0600 -86.5783 196° South 230 265 4,500 -1,080 Descending Memphis Center
10:13PM 36.0011 -86.6053 200° South 234 269 3,100 -1,020 Descending Memphis Center
10:14PM 36.0092 -86.6744 278° West 210 242 2,500 -480 Descending Memphis Center
10:15PM 36.0381 -86.7014 323° Northwest 146 168 2,200 -480 Descending Memphis Center
10:16PM 36.0708 -86.7075 351° North 126 145 1,600 -600 Descending Memphis Center
10:17PM 36.1008 -86.6931 21° North 121 139 1,000 -480 Descending Memphis Center
10:18PM 36.1336 -86.6814 16° North 119 137 700 -300 Descending Memphis Center